Time;durP1;ratioP1;P1;durP2;ratioP2;P2;SDS_P1;SDS_P2;PMS_P1;PMS_P2;Temp;Humidity;BMP_temperature;BMP_pressure;BME280_temperature;BME280_humidity;BME280_pressure;Samples;Min_cycle;Max_cycle;Signal;HPM_P1;HPM_P2
2024/04/12 00:01:01;;;;;;;1.75;0.30;;;14.80;74.10;;;;;;5463430;26;20002;-73
2024/04/12 00:03:27;;;;;;;2.22;0.22;;;14.90;74.10;;;;;;5455891;26;20003;-71
2024/04/12 00:05:54;;;;;;;2.30;0.30;;;14.80;73.50;;;;;;5434836;26;19990;-71
2024/04/12 00:08:24;;;;;;;3.35;0.10;;;14.80;73.20;;;;;;5463091;26;20010;-68
2024/04/12 00:10:52;;;;;;;1.27;0.28;;;14.80;73.20;;;;;;5429594;26;20042;-68
2024/04/12 00:13:18;;;;;;;4.78;0.30;;;14.80;73.20;;;;;;5455938;26;20061;-69
2024/04/12 00:15:43;;;;;;;3.65;0.22;;;14.80;73.00;;;;;;5458324;26;20059;-71
2024/04/12 00:18:11;;;;;;;10.20;0.60;;;14.80;73.40;;;;;;5452779;26;19999;-71
2024/04/12 00:20:37;;;;;;;;;;;14.80;73.90;;;;;;5466944;26;20406;-71
2024/04/12 00:23:03;;;;;;;2.40;0.10;;;14.80;73.70;;;;;;5459154;26;19931;-73
2024/04/12 00:25:32;;;;;;;2.42;0.30;;;14.70;74.10;;;;;;5442927;26;20027;-71
2024/04/12 00:27:58;;;;;;;0.95;0.10;;;14.60;74.20;;;;;;5456646;26;19994;-73
2024/04/12 00:30:41;;;;;;;4.20;0.15;;;14.60;74.50;;;;;;5461507;26;20014;-72
2024/04/12 00:33:13;;;;;;;3.33;0.20;;;14.60;74.70;;;;;;5430743;26;20016;-72
2024/04/12 00:35:40;;;;;;;1.77;0.20;;;14.60;74.80;;;;;;5464273;26;20030;-72
2024/04/12 00:38:09;;;;;;;1.92;0.30;;;14.70;75.20;;;;;;5431417;26;20088;-72
2024/04/12 00:40:46;;;;;;;2.95;0.35;;;14.60;75.20;;;;;;5425496;26;19991;-69
2024/04/12 00:43:15;;;;;;;0.95;0.10;;;14.60;75.20;;;;;;5459950;26;20313;-70
2024/04/12 00:45:52;;;;;;;1.30;0.20;;;14.50;74.90;;;;;;5462488;26;19998;-69
2024/04/12 00:48:21;;;;;;;2.60;0.32;;;14.50;75.20;;;;;;5455159;26;20450;-70
2024/04/12 00:50:50;;;;;;;2.42;0.40;;;14.40;75.60;;;;;;5456742;26;20010;-70
2024/04/12 00:53:28;;;;;;;2.20;0.10;;;14.40;75.60;;;;;;5456491;26;20327;-72
2024/04/12 00:56:03;;;;;;;1.83;0.20;;;14.40;75.80;;;;;;5454573;26;20003;-71
2024/04/12 00:58:32;;;;;;;0.98;0.20;;;14.40;76.10;;;;;;5418414;26;20013;-72
2024/04/12 01:01:16;;;;;;;1.55;0.10;;;14.30;76.40;;;;;;5461411;26;20074;-71
2024/04/12 01:03:47;;;;;;;1.85;0.20;;;14.30;76.80;;;;;;5463943;26;20002;-71
2024/04/12 01:06:24;;;;;;;0.85;0.10;;;14.30;76.30;;;;;;5434286;26;20018;-72
2024/04/12 01:08:51;;;;;;;8.50;0.50;;;14.30;76.40;;;;;;5399095;26;20357;-70
2024/04/12 01:11:19;;;;;;;;;;;14.20;76.70;;;;;;5398928;26;20436;-71
2024/04/12 01:13:47;;;;;;;6.90;0.40;;;14.20;76.90;;;;;;5439480;26;19924;-70
2024/04/12 01:16:13;;;;;;;1.33;0.15;;;14.10;77.00;;;;;;5434199;26;20186;-71
2024/04/12 01:18:39;;;;;;;0.25;0.10;;;14.10;77.50;;;;;;5454507;26;19998;-71
2024/04/12 01:21:11;;;;;;;2.05;0.20;;;14.00;77.60;;;;;;5467207;26;19998;-70
2024/04/12 01:23:42;;;;;;;1.95;0.22;;;13.90;78.00;;;;;;5446651;26;20018;-71
2024/04/12 01:26:13;;;;;;;6.32;0.38;;;13.90;78.20;;;;;;5441991;26;20138;-68
2024/04/12 01:28:42;;;;;;;1.20;0.10;;;13.90;78.20;;;;;;5449330;26;20093;-71
2024/04/12 01:31:08;;;;;;;2.92;0.22;;;13.80;78.50;;;;;;5455999;26;20433;-71
2024/04/12 01:33:36;;;;;;;1.35;0.20;;;13.70;78.50;;;;;;5465070;26;20047;-71
2024/04/12 01:36:05;;;;;;;1.42;0.20;;;13.70;78.70;;;;;;5463953;26;20010;-70
2024/04/12 01:38:36;;;;;;;0.28;0.10;;;13.70;79.20;;;;;;5462508;26;20562;-71
2024/04/12 01:41:05;;;;;;;2.40;0.25;;;13.70;79.20;;;;;;5457436;26;20012;-71
2024/04/12 01:43:36;;;;;;;1.40;0.22;;;13.70;79.00;;;;;;5421668;26;19995;-71
2024/04/12 01:46:04;;;;;;;6.75;0.30;;;13.70;79.30;;;;;;5441473;26;20538;-71
2024/04/12 01:48:33;;;;;;;2.78;0.20;;;13.70;78.90;;;;;;5462466;26;19994;-71
2024/04/12 01:51:03;;;;;;;4.78;0.30;;;13.70;79.10;;;;;;5450357;26;19995;-70
2024/04/12 01:53:36;;;;;;;1.85;0.20;;;13.60;78.90;;;;;;5455628;26;20002;-71
2024/04/12 01:56:13;;;;;;;2.67;0.17;;;13.70;79.00;;;;;;5428125;26;20007;-71
2024/04/12 01:58:40;;;;;;;1.98;0.20;;;13.70;79.10;;;;;;5453372;26;19999;-69
2024/04/12 02:01:10;;;;;;;3.60;0.40;;;13.60;79.10;;;;;;5452730;26;20013;-71
2024/04/12 02:03:37;;;;;;;3.03;0.30;;;13.70;79.00;;;;;;5447221;26;19998;-71
2024/04/12 02:06:05;;;;;;;3.05;0.22;;;13.60;79.10;;;;;;5426940;26;20513;-72
2024/04/12 02:08:32;;;;;;;;;;;13.60;79.20;;;;;;5461553;26;20395;-68
2024/04/12 02:10:58;;;;;;;1.30;0.20;;;13.60;79.40;;;;;;5455866;26;20043;-71
2024/04/12 02:13:35;;;;;;;9.85;0.60;;;13.60;79.50;;;;;;5458588;26;20071;-70
2024/04/12 02:16:01;;;;;;;1.40;0.30;;;13.70;79.40;;;;;;5423250;26;20086;-71
2024/04/12 02:18:32;;;;;;;3.65;0.20;;;13.60;79.60;;;;;;5414193;26;21964;-72
2024/04/12 02:21:04;;;;;;;0.73;0.20;;;13.60;80.00;;;;;;5437648;26;20002;-70
2024/04/12 02:23:33;;;;;;;1.17;0.30;;;13.50;80.00;;;;;;5423032;26;20010;-70
2024/04/12 02:25:59;;;;;;;1.75;0.17;;;13.50;80.10;;;;;;5444215;26;20002;-71
2024/04/12 02:28:26;;;;;;;2.78;0.13;;;13.50;80.10;;;;;;5464672;26;20036;-69
2024/04/12 02:30:54;;;;;;;2.42;0.30;;;13.50;80.10;;;;;;5451972;26;20833;-72
2024/04/12 02:33:26;;;;;;;1.40;0.25;;;13.60;80.30;;;;;;5400700;26;20459;-71
2024/04/12 02:36:03;;;;;;;1.92;0.32;;;13.50;80.10;;;;;;5418804;26;19995;-72
2024/04/12 02:38:29;;;;;;;0.52;0.08;;;13.40;80.20;;;;;;5457117;26;20013;-72
2024/04/12 02:40:58;;;;;;;1.75;0.10;;;13.40;80.50;;;;;;5463507;26;20448;-71
2024/04/12 02:43:29;;;;;;;3.72;0.17;;;13.30;81.00;;;;;;5423064;26;20125;-73
2024/04/12 02:45:55;;;;;;;2.70;0.32;;;13.30;80.90;;;;;;5455902;26;20017;-72
2024/04/12 02:48:21;;;;;;;3.08;0.20;;;13.20;80.90;;;;;;5450741;26;20013;-71
2024/04/12 02:50:48;;;;;;;2.33;0.30;;;13.20;81.50;;;;;;5465051;26;20009;-72
2024/04/12 02:53:18;;;;;;;1.95;0.10;;;13.10;81.60;;;;;;5464813;26;20012;-72
2024/04/12 02:55:44;;;;;;;1.23;0.20;;;13.10;81.70;;;;;;5458529;26;20350;-70
2024/04/12 02:58:16;;;;;;;1.05;0.20;;;13.20;82.00;;;;;;5459414;26;20041;-71
2024/04/12 03:00:44;;;;;;;4.30;0.25;;;13.10;81.90;;;;;;5451764;26;20002;-72
2024/04/12 03:03:11;;;;;;;3.97;0.20;;;13.20;82.00;;;;;;5459895;26;20267;-70
2024/04/12 03:05:38;;;;;;;2.15;0.30;;;13.20;82.00;;;;;;5430374;26;19991;-71
2024/04/12 03:08:05;;;;;;;0.20;0.08;;;13.20;82.00;;;;;;5423337;26;20013;-69
2024/04/12 03:10:32;;;;;;;2.33;0.25;;;13.20;81.90;;;;;;5447043;26;20009;-69
2024/04/12 03:13:01;;;;;;;1.33;0.20;;;13.20;82.00;;;;;;5455293;26;20029;-71
2024/04/12 03:15:27;;;;;;;0.68;0.10;;;13.10;81.90;;;;;;5450802;26;19995;-71
2024/04/12 03:17:53;;;;;;;0.90;0.20;;;13.20;82.60;;;;;;5453562;26;20011;-71
2024/04/12 03:20:19;;;;;;;2.50;0.20;;;13.20;82.20;;;;;;5454469;26;20005;-72
2024/04/12 03:22:45;;;;;;;4.20;0.20;;;13.20;82.40;;;;;;5397666;26;20002;-72
2024/04/12 03:25:11;;;;;;;4.88;0.30;;;13.20;81.90;;;;;;5450050;26;20002;-71
2024/04/12 03:27:44;;;;;;;2.05;0.20;;;13.10;82.30;;;;;;5460003;26;19994;-69
2024/04/12 03:30:16;;;;;;;3.03;0.28;;;13.10;82.30;;;;;;5457909;26;19995;-71
2024/04/12 03:32:44;;;;;;;1.27;0.20;;;13.00;82.50;;;;;;5446124;26;20373;-71
2024/04/12 03:35:16;;;;;;;0.43;0.10;;;13.00;82.90;;;;;;5450197;26;20010;-72
2024/04/12 03:37:47;;;;;;;3.25;0.40;;;13.00;82.90;;;;;;5459189;26;20488;-70
2024/04/12 03:40:17;;;;;;;1.45;0.32;;;13.10;82.90;;;;;;5459939;26;20046;-72
2024/04/12 03:42:44;;;;;;;2.40;0.30;;;13.10;82.90;;;;;;5450306;26;20349;-69
2024/04/12 03:45:14;;;;;;;4.05;0.30;;;13.10;82.90;;;;;;5425951;26;19991;-71
2024/04/12 03:47:50;;;;;;;2.47;0.30;;;13.00;82.70;;;;;;5461305;26;20611;-73
2024/04/12 03:50:16;;;;;;;2.28;0.30;;;12.90;83.00;;;;;;5459415;26;20010;-71
2024/04/12 03:52:43;;;;;;;1.52;0.20;;;13.00;83.40;;;;;;5419137;26;19999;-71
2024/04/12 03:55:10;;;;;;;0.88;0.20;;;12.90;83.20;;;;;;5425331;26;20079;-72
2024/04/12 03:57:39;;;;;;;1.13;0.20;;;12.80;83.20;;;;;;5435105;26;20000;-72
2024/04/12 04:00:13;;;;;;;1.75;0.30;;;12.80;83.50;;;;;;5434122;26;19991;-72
2024/04/12 04:02:39;;;;;;;3.78;0.45;;;12.80;83.70;;;;;;5453604;26;20007;-71
2024/04/12 04:05:15;;;;;;;1.65;0.30;;;12.80;83.90;;;;;;5463111;26;20298;-72
2024/04/12 04:07:47;;;;;;;1.63;0.30;;;12.80;83.80;;;;;;5459123;26;20005;-69
2024/04/12 04:10:20;;;;;;;6.90;0.45;;;12.80;83.90;;;;;;5422807;26;20030;-72
2024/04/12 04:12:49;;;;;;;2.55;0.30;;;12.80;83.80;;;;;;5451723;26;20402;-72
2024/04/12 04:15:15;;;;;;;2.28;0.35;;;12.80;83.80;;;;;;5449030;26;19999;-71
2024/04/12 04:17:47;;;;;;;4.15;0.40;;;12.70;83.50;;;;;;5429596;26;19998;-72
2024/04/12 04:20:14;;;;;;;2.25;0.38;;;12.60;83.60;;;;;;5454591;26;19994;-69
2024/04/12 04:22:40;;;;;;;2.72;0.30;;;12.50;83.90;;;;;;5455636;26;20010;-72
2024/04/12 04:25:09;;;;;;;4.47;0.40;;;12.50;84.10;;;;;;5410460;26;20009;-71
2024/04/12 04:27:41;;;;;;;3.08;0.40;;;12.40;84.10;;;;;;5429994;26;20088;-72
2024/04/12 04:30:07;;;;;;;2.60;0.40;;;12.40;84.50;;;;;;5425009;26;20012;-72
2024/04/12 04:32:33;;;;;;;1.48;0.30;;;12.40;84.80;;;;;;5434521;26;20021;-69
2024/04/12 04:35:05;;;;;;;3.90;0.35;;;12.40;84.70;;;;;;5427145;26;20542;-71
2024/04/12 04:37:34;;;;;;;4.50;0.40;;;12.30;84.70;;;;;;5459158;26;20494;-72
2024/04/12 04:40:18;;;;;;;0.98;0.25;;;12.30;85.60;;;;;;5458635;26;20002;-71
2024/04/12 04:42:45;;;;;;;3.53;0.20;;;12.30;85.00;;;;;;5432043;26;20217;-71
2024/04/12 04:45:17;;;;;;;4.03;0.30;;;12.30;85.00;;;;;;5463528;26;20356;-72
2024/04/12 04:47:44;;;;;;;2.08;0.25;;;12.20;85.20;;;;;;5450958;26;20014;-71
2024/04/12 04:50:12;;;;;;;7.22;0.60;;;12.30;85.50;;;;;;5466053;26;19998;-72
2024/04/12 04:52:38;;;;;;;1.65;0.30;;;12.30;85.60;;;;;;5457567;26;20081;-71
2024/04/12 04:55:07;;;;;;;1.80;0.20;;;12.20;85.90;;;;;;5443488;26;20011;-71
2024/04/12 04:57:35;;;;;;;4.38;0.50;;;12.20;86.00;;;;;;5449095;26;20014;-71
2024/04/12 05:00:07;;;;;;;2.92;0.32;;;12.30;86.00;;;;;;5463931;26;19990;-73
2024/04/12 05:02:36;;;;;;;2.75;0.32;;;12.30;86.10;;;;;;5462798;26;20568;-72
2024/04/12 05:05:05;;;;;;;1.40;0.32;;;12.30;85.90;;;;;;5451113;26;19990;-72
2024/04/12 05:07:34;;;;;;;5.68;0.52;;;12.30;86.20;;;;;;5451383;26;20003;-72
2024/04/12 05:10:14;;;;;;;2.72;0.20;;;12.40;86.10;;;;;;5460137;26;20056;-70
2024/04/12 05:12:40;;;;;;;3.80;0.32;;;12.30;86.30;;;;;;5432171;26;20416;-71
2024/04/12 05:15:48;;;;;;;1.90;0.20;;;12.20;86.40;;;;;;5453283;26;20003;-72
2024/04/12 05:18:03;;;;;;;1.67;0.40;;;12.20;86.70;;;;;;5441755;26;20006;-72
2024/04/12 05:20:38;;;;;;;1.95;0.30;;;12.30;87.00;;;;;;5422291;26;20454;-71
2024/04/12 05:23:16;;;;;;;2.75;0.40;;;12.30;87.20;;;;;;5417610;26;20003;-70
2024/04/12 05:25:49;;;;;;;2.28;0.25;;;12.40;86.80;;;;;;5394010;26;19999;-72
2024/04/12 05:28:15;;;;;;;3.35;0.30;;;12.30;86.80;;;;;;5413455;26;20000;-71
2024/04/12 05:30:44;;;;;;;2.38;0.40;;;12.40;87.20;;;;;;5441066;26;19998;-71
2024/04/12 05:33:16;;;;;;;2.25;0.40;;;12.40;87.10;;;;;;5451625;26;20088;-70
2024/04/12 05:35:43;;;;;;;1.95;0.32;;;12.40;87.20;;;;;;5451852;26;20043;-68
2024/04/12 05:38:09;;;;;;;2.20;0.38;;;12.40;86.90;;;;;;5448856;26;20445;-71
2024/04/12 05:40:39;;;;;;;1.95;0.40;;;12.40;86.90;;;;;;5449116;26;20009;-71
2024/04/12 05:43:13;;;;;;;1.45;0.25;;;12.40;87.00;;;;;;5448399;26;20013;-72
2024/04/12 05:45:44;;;;;;;3.78;0.38;;;12.50;87.20;;;;;;5426484;26;20002;-70
2024/04/12 05:48:13;;;;;;;3.75;0.28;;;12.60;87.10;;;;;;5457157;26;19994;-71
2024/04/12 05:50:49;;;;;;;1.77;0.35;;;12.60;87.00;;;;;;5446728;26;20014;-72
2024/04/12 05:53:16;;;;;;;0.60;0.20;;;12.70;86.80;;;;;;5369595;26;20462;-70
2024/04/12 05:55:45;;;;;;;1.08;0.20;;;12.80;86.20;;;;;;5408576;26;20003;-71
2024/04/12 05:58:15;;;;;;;2.40;0.32;;;12.80;85.90;;;;;;5450574;26;20456;-72
2024/04/12 06:00:47;;;;;;;3.42;0.28;;;12.80;86.00;;;;;;5452602;26;20033;-71
2024/04/12 06:03:14;;;;;;;3.53;0.30;;;12.80;86.00;;;;;;5445764;26;20002;-69
2024/04/12 06:05:46;;;;;;;4.65;0.50;;;12.80;86.30;;;;;;5443907;26;20078;-72
2024/04/12 06:08:14;;;;;;;4.47;0.40;;;12.90;86.10;;;;;;5434305;26;20010;-71
2024/04/12 06:10:44;;;;;;;7.25;0.38;;;12.90;86.10;;;;;;5435957;26;19994;-69
2024/04/12 06:13:11;;;;;;;2.72;0.30;;;12.90;86.40;;;;;;5433083;26;20014;-71
2024/04/12 06:15:37;;;;;;;4.38;0.40;;;12.90;86.40;;;;;;5434705;26;20017;-70
2024/04/12 06:18:05;;;;;;;1.95;0.30;;;13.00;86.60;;;;;;5391784;26;19994;-69
2024/04/12 06:20:31;;;;;;;2.95;0.40;;;13.00;86.50;;;;;;5431910;26;20441;-71
2024/04/12 06:23:06;;;;;;;2.40;0.30;;;13.00;86.00;;;;;;5438336;26;20012;-72
2024/04/12 06:25:38;;;;;;;4.97;0.35;;;13.10;86.30;;;;;;5432392;26;19995;-69
2024/04/12 06:28:11;;;;;;;3.72;0.40;;;13.20;86.40;;;;;;5431062;26;20010;-71
2024/04/12 06:30:41;;;;;;;;;;;13.30;86.30;;;;;;5433034;26;20010;-70
2024/04/12 06:33:06;;;;;;;3.30;0.40;;;13.40;85.80;;;;;;5431297;26;19925;-69
2024/04/12 06:35:44;;;;;;;2.08;0.43;;;13.40;85.90;;;;;;5431924;26;20010;-71
2024/04/12 06:38:10;;;;;;;2.20;0.30;;;13.40;86.00;;;;;;5427534;26;19996;-71
2024/04/12 06:40:37;;;;;;;2.08;0.20;;;13.60;86.30;;;;;;5427183;26;20013;-70
2024/04/12 06:43:06;;;;;;;3.05;0.40;;;13.60;86.30;;;;;;5406742;26;20003;-71
2024/04/12 06:45:41;;;;;;;2.65;0.40;;;13.70;86.50;;;;;;5430075;26;20014;-70
2024/04/12 06:48:19;;;;;;;1.50;0.20;;;13.80;86.30;;;;;;5428150;26;20390;-71
2024/04/12 06:50:55;;;;;;;1.55;0.40;;;13.90;86.30;;;;;;5432508;26;19998;-70
2024/04/12 06:53:24;;;;;;;2.58;0.32;;;14.00;86.10;;;;;;5428150;26;19995;-71
2024/04/12 06:55:55;;;;;;;3.42;0.40;;;14.00;86.30;;;;;;5383870;26;20010;-70
2024/04/12 06:58:21;;;;;;;2.95;0.30;;;14.10;86.30;;;;;;5425397;26;20006;-68
2024/04/12 07:00:59;;;;;;;1.95;0.47;;;14.30;86.70;;;;;;5432250;26;20015;-70
2024/04/12 07:03:25;;;;;;;3.03;0.30;;;14.50;86.30;;;;;;5434716;26;19999;-68
2024/04/12 07:05:53;;;;;;;1.92;0.30;;;14.70;85.70;;;;;;5441670;26;20076;-71
2024/04/12 07:08:26;;;;;;;2.38;0.30;;;14.80;84.30;;;;;;5438822;26;20101;-72
2024/04/12 07:10:52;;;;;;;1.48;0.32;;;15.00;84.20;;;;;;5437117;26;20014;-71
2024/04/12 07:13:25;;;;;;;4.18;0.47;;;15.10;84.10;;;;;;5433641;26;20075;-70
2024/04/12 07:16:01;;;;;;;1.65;0.30;;;15.20;83.50;;;;;;5438798;26;19998;-70
2024/04/12 07:18:28;;;;;;;2.95;0.38;;;15.40;83.30;;;;;;5437065;26;20003;-70
2024/04/12 07:21:15;;;;;;;2.35;0.47;;;15.60;83.00;;;;;;5438464;26;20022;-69
2024/04/12 07:23:49;;;;;;;4.13;0.50;;;15.80;83.00;;;;;;5375047;26;20344;-70
2024/04/12 07:26:24;;;;;;;4.80;0.38;;;16.00;82.60;;;;;;5332613;26;20000;-70
2024/04/12 07:29:01;;;;;;;6.45;0.50;;;16.10;82.10;;;;;;5422013;26;20014;-71
2024/04/12 07:31:34;;;;;;;8.63;0.77;;;16.40;81.00;;;;;;5444988;26;20083;-71
2024/04/12 07:34:01;;;;;;;3.05;0.40;;;16.40;81.30;;;;;;5439496;26;19998;-72
2024/04/12 07:36:31;;;;;;;2.13;0.35;;;16.40;81.50;;;;;;5431798;26;20013;-69
2024/04/12 07:39:01;;;;;;;1.50;0.25;;;16.50;81.00;;;;;;5436015;26;20062;-72
2024/04/12 07:41:38;;;;;;;2.58;0.30;;;16.50;81.40;;;;;;5433404;26;20019;-72
2024/04/12 07:44:12;;;;;;;3.42;0.30;;;16.60;81.50;;;;;;5435005;26;20080;-71
2024/04/12 07:46:38;;;;;;;4.00;0.50;;;16.60;81.50;;;;;;5401996;26;20014;-70
2024/04/12 07:49:07;;;;;;;1.23;0.20;;;16.70;81.70;;;;;;5416195;26;20003;-72
2024/04/12 07:51:39;;;;;;;5.18;0.50;;;16.70;81.40;;;;;;5436371;26;20089;-68
2024/04/12 07:54:12;;;;;;;2.67;0.35;;;16.80;82.20;;;;;;5435080;26;19999;-71
2024/04/12 07:56:43;;;;;;;3.53;0.40;;;16.90;81.70;;;;;;5433767;26;20010;-70
2024/04/12 07:59:13;;;;;;;2.58;0.20;;;16.90;81.30;;;;;;5434919;26;20013;-71
2024/04/12 08:01:45;;;;;;;2.83;0.25;;;17.00;81.80;;;;;;5400463;26;20370;-70
2024/04/12 08:04:22;;;;;;;3.97;0.35;;;17.10;81.90;;;;;;5417803;26;20001;-71
2024/04/12 08:11:59;;;;;;;2.10;0.20;;;17.20;81.80;;;;;;5445985;26;20398;-70
2024/04/12 08:14:33;;;;;;;3.28;0.30;;;17.30;81.00;;;;;;5424861;26;20464;-70
2024/04/12 08:17:01;;;;;;;2.40;0.25;;;17.30;80.60;;;;;;5377197;26;20003;-70
2024/04/12 08:19:39;;;;;;;2.75;0.30;;;17.30;80.80;;;;;;5408486;26;20002;-70
2024/04/12 08:22:06;;;;;;;5.88;0.47;;;17.30;80.80;;;;;;5436865;26;19991;-70
2024/04/12 08:24:33;;;;;;;2.85;0.38;;;17.30;80.80;;;;;;5408597;26;20071;-70
2024/04/12 08:27:02;;;;;;;3.88;0.43;;;17.30;81.70;;;;;;5440972;26;20010;-70
2024/04/12 08:29:27;;;;;;;3.33;0.40;;;17.30;81.70;;;;;;5412365;26;20071;-69
2024/04/12 08:34:36;;;;;;;3.33;0.40;;;17.60;81.80;;;;;;5432796;26;20011;-70
2024/04/12 08:37:03;;;;;;;4.18;0.38;;;17.70;80.90;;;;;;5416672;26;20008;-70
2024/04/12 08:39:42;;;;;;;;;;;17.80;81.30;;;;;;5437906;26;19994;-70
2024/04/12 08:42:29;;;;;;;4.65;0.50;;;17.90;81.80;;;;;;5436236;26;19955;-68
2024/04/12 08:44:59;;;;;;;5.88;0.45;;;18.00;81.50;;;;;;5406064;26;19995;-69
2024/04/12 08:50:06;;;;;;;6.07;0.63;;;18.30;81.90;;;;;;5393864;26;20010;-70
2024/04/12 08:52:43;;;;;;;4.05;0.50;;;18.40;81.50;;;;;;5429604;26;20010;-71
2024/04/12 08:55:13;;;;;;;4.45;0.45;;;18.50;81.00;;;;;;5441935;26;19991;-72
2024/04/12 08:57:43;;;;;;;4.10;0.38;;;18.60;81.20;;;;;;5437844;26;20601;-72
2024/04/12 09:00:18;;;;;;;1.85;0.40;;;18.70;81.80;;;;;;5445192;26;20097;-70
2024/04/12 09:02:50;;;;;;;3.40;0.30;;;18.90;81.30;;;;;;5442078;26;20359;-71
2024/04/12 09:05:24;;;;;;;4.95;0.40;;;19.00;80.10;;;;;;5442975;26;20450;-71
2024/04/12 09:07:58;;;;;;;5.82;0.50;;;19.10;78.90;;;;;;5390656;26;20011;-70
2024/04/12 09:10:34;;;;;;;2.13;0.30;;;19.00;79.60;;;;;;5419686;26;20002;-70
2024/04/12 09:13:01;;;;;;;3.17;0.40;;;19.00;79.60;;;;;;5416918;26;20030;-72
2024/04/12 09:15:27;;;;;;;1.35;0.20;;;19.10;78.90;;;;;;5432820;26;20075;-69
2024/04/12 09:18:13;;;;;;;2.38;0.20;;;19.20;78.90;;;;;;5379906;26;20382;-71
2024/04/12 09:20:40;;;;;;;1.45;0.20;;;19.40;78.60;;;;;;5352773;26;20012;-70
2024/04/12 09:23:16;;;;;;;1.60;0.22;;;19.40;78.00;;;;;;5311571;26;20052;-69
2024/04/12 09:25:54;;;;;;;1.98;0.20;;;19.50;78.70;;;;;;5382983;26;19999;-70
2024/04/12 09:28:26;;;;;;;2.08;0.30;;;19.40;78.60;;;;;;5403344;26;20004;-70
2024/04/12 09:33:50;;;;;;;2.92;0.20;;;19.40;78.70;;;;;;5438138;26;20085;-72
2024/04/12 09:36:28;;;;;;;2.70;0.20;;;19.40;78.60;;;;;;5437769;26;20454;-69
2024/04/12 09:38:59;;;;;;;1.35;0.20;;;19.30;79.80;;;;;;5436725;26;19994;-71
2024/04/12 09:41:28;;;;;;;1.65;0.20;;;19.40;79.60;;;;;;5436543;26;21527;-71
2024/04/12 09:44:00;;;;;;;1.05;0.20;;;19.50;80.10;;;;;;5408773;26;19999;-70
2024/04/12 09:46:47;;;;;;;0.88;0.10;;;19.50;80.10;;;;;;5440518;26;20011;-69
2024/04/12 10:39:33;;;;;;;0.45;0.17;;;19.60;79.70;;;;;;5437520;26;20026;-71
2024/04/12 10:42:05;;;;;;;1.02;0.10;;;19.50;79.70;;;;;;5446467;26;20010;-71
2024/04/12 10:44:32;;;;;;;0.85;0.15;;;19.40;79.90;;;;;;5441765;26;20010;-69
2024/04/12 10:46:59;;;;;;;0.22;0.03;;;19.40;79.80;;;;;;5439712;26;19991;-71
2024/04/12 10:49:24;;;;;;;1.85;0.10;;;19.40;80.40;;;;;;5440914;26;20695;-68
2024/04/12 10:51:52;;;;;;;0.55;0.10;;;19.40;80.80;;;;;;5433121;26;20010;-71
2024/04/12 10:54:23;;;;;;;0.40;0.03;;;19.40;80.60;;;;;;5444255;26;20082;-71
2024/04/12 10:56:56;;;;;;;0.90;0.00;;;19.40;80.70;;;;;;5437998;26;20003;-73
2024/04/12 10:59:27;;;;;;;0.60;0.10;;;19.30;80.70;;;;;;5412314;26;20006;-67
2024/04/12 11:02:00;;;;;;;0.70;0.10;;;19.40;80.60;;;;;;5424545;26;19990;-70
2024/04/12 11:04:34;;;;;;;0.30;0.10;;;19.40;81.10;;;;;;5436181;26;20449;-70
2024/04/12 11:07:00;;;;;;;2.55;0.10;;;19.40;80.90;;;;;;5398011;26;20395;-71
2024/04/12 11:09:38;;;;;;;0.35;0.10;;;19.30;81.30;;;;;;5375536;26;19996;-70
2024/04/12 11:12:09;;;;;;;0.43;0.03;;;19.40;82.00;;;;;;5391722;26;20047;-71
2024/04/12 11:14:35;;;;;;;0.43;0.13;;;19.30;81.30;;;;;;5402600;26;20076;-71
2024/04/12 11:31:15;;;;;;;0.25;0.08;;;19.60;81.60;;;;;;5313898;26;20523;-70
2024/04/12 11:33:52;;;;;;;1.25;0.10;;;19.70;81.40;;;;;;5352710;26;20011;-72
2024/04/12 11:36:20;;;;;;;1.05;0.20;;;19.80;81.40;;;;;;5362269;26;20324;-70
2024/04/12 11:38:47;;;;;;;0.75;0.28;;;20.00;80.50;;;;;;5368189;26;20000;-70
2024/04/12 11:41:15;;;;;;;2.47;0.10;;;19.90;79.60;;;;;;5403236;26;20093;-71
2024/04/12 11:43:47;;;;;;;0.93;0.20;;;20.00;79.80;;;;;;5348057;26;20009;-71
2024/04/12 11:46:23;;;;;;;0.22;0.08;;;20.00;80.20;;;;;;5376966;26;20374;-70
2024/04/12 11:48:53;;;;;;;0.82;0.13;;;20.00;80.70;;;;;;5379862;26;20367;-72
2024/04/12 11:51:19;;;;;;;1.02;0.10;;;20.00;80.10;;;;;;5425107;26;20777;-71
2024/04/12 11:53:51;;;;;;;1.00;0.10;;;20.00;80.00;;;;;;5400194;26;20458;-71
2024/04/12 11:56:17;;;;;;;0.50;0.10;;;20.10;80.70;;;;;;5391717;26;19992;-71
2024/04/12 11:58:43;;;;;;;1.48;0.10;;;20.10;79.40;;;;;;5424102;26;20010;-72
2024/04/12 12:01:09;;;;;;;0.20;0.10;;;20.00;79.90;;;;;;5436567;26;20011;-72
2024/04/12 12:03:35;;;;;;;1.17;0.17;;;20.00;79.40;;;;;;5443843;26;20013;-72
2024/04/12 12:06:06;;;;;;;0.80;0.10;;;19.90;80.20;;;;;;5432934;26;20009;-72
2024/04/12 12:08:40;;;;;;;2.60;0.20;;;19.90;80.10;;;;;;5389182;26;20008;-72
2024/04/12 12:11:06;;;;;;;0.75;0.10;;;19.90;79.80;;;;;;5410214;26;20009;-71
2024/04/12 12:13:32;;;;;;;0.45;0.20;;;19.90;79.60;;;;;;5409028;26;20018;-72
2024/04/12 12:15:58;;;;;;;0.70;0.10;;;19.80;80.60;;;;;;5432585;26;20014;-72
2024/04/12 12:18:27;;;;;;;1.02;0.10;;;19.80;80.50;;;;;;5439749;26;20007;-72
2024/04/12 12:20:53;;;;;;;2.70;0.10;;;19.90;80.80;;;;;;5439353;26;20018;-71
2024/04/12 12:23:19;;;;;;;0.20;0.08;;;20.10;82.00;;;;;;5431296;26;19999;-70
2024/04/12 12:25:47;;;;;;;1.90;0.10;;;20.30;81.20;;;;;;5436211;26;20067;-70
2024/04/12 12:28:13;;;;;;;0.65;0.20;;;20.60;79.10;;;;;;5410985;26;19994;-70
2024/04/12 12:30:39;;;;;;;0.73;0.20;;;20.70;78.30;;;;;;5437103;26;20007;-72
2024/04/12 12:33:07;;;;;;;1.00;0.10;;;20.70;79.20;;;;;;5440350;26;20010;-70
2024/04/12 12:35:42;;;;;;;1.25;0.20;;;20.80;78.60;;;;;;5444299;26;20010;-71
2024/04/12 12:38:11;;;;;;;0.10;0.10;;;20.80;79.60;;;;;;5437780;26;22119;-70
2024/04/12 12:40:38;;;;;;;2.00;0.22;;;20.80;78.90;;;;;;5443514;26;20002;-68
2024/04/12 12:43:04;;;;;;;1.75;0.20;;;20.80;77.90;;;;;;5437384;26;20006;-72
2024/04/12 12:45:33;;;;;;;1.23;0.20;;;20.80;78.00;;;;;;5438179;26;20014;-71
2024/04/12 12:47:58;;;;;;;3.70;0.20;;;20.80;77.60;;;;;;5400148;26;20388;-68
2024/04/12 12:50:24;;;;;;;0.55;0.17;;;20.80;79.40;;;;;;5428278;26;19998;-70
2024/04/12 12:52:50;;;;;;;1.20;0.20;;;20.70;77.40;;;;;;5437837;26;20011;-69
2024/04/12 12:55:22;;;;;;;0.85;0.13;;;20.70;77.80;;;;;;5434024;26;20007;-72
2024/04/12 12:58:09;;;;;;;0.82;0.10;;;20.70;78.70;;;;;;5429371;26;20522;-72
2024/04/12 13:00:36;;;;;;;2.55;0.32;;;20.70;78.60;;;;;;5442225;26;20091;-72
2024/04/12 13:03:10;;;;;;;1.35;0.10;;;20.70;78.10;;;;;;5397031;26;20434;-72
2024/04/12 13:05:36;;;;;;;0.77;0.10;;;20.70;78.00;;;;;;5434242;26;20006;-73
2024/04/12 13:08:03;;;;;;;1.48;0.20;;;20.50;77.60;;;;;;5432669;26;19999;-70
2024/04/12 13:10:33;;;;;;;1.17;0.13;;;20.50;78.10;;;;;;5429478;26;20006;-70
2024/04/12 13:13:05;;;;;;;0.43;0.20;;;20.40;78.60;;;;;;5442898;26;20423;-72
2024/04/12 13:15:32;;;;;;;0.40;0.10;;;20.50;78.90;;;;;;5387003;26;20794;-70
2024/04/12 13:17:57;;;;;;;1.73;0.25;;;20.40;78.40;;;;;;5416983;26;20003;-72
2024/04/12 13:20:23;;;;;;;0.43;0.13;;;20.30;78.70;;;;;;5423307;26;20017;-72
2024/04/12 13:22:49;;;;;;;1.02;0.20;;;20.30;79.10;;;;;;5432864;26;20108;-71
2024/04/12 13:25:15;;;;;;;0.80;0.15;;;20.40;80.00;;;;;;5435217;26;20092;-70
2024/04/12 13:27:41;;;;;;;2.13;0.28;;;20.50;79.30;;;;;;5435495;26;20076;-68
2024/04/12 13:30:14;;;;;;;1.95;0.30;;;20.50;78.50;;;;;;5441759;26;19998;-73
2024/04/12 13:32:43;;;;;;;1.10;0.20;;;20.50;78.70;;;;;;5433882;26;20027;-72
2024/04/12 13:35:16;;;;;;;0.95;0.17;;;20.50;78.70;;;;;;5434692;26;20010;-70
2024/04/12 13:37:43;;;;;;;0.30;0.10;;;20.50;78.20;;;;;;5435583;26;20291;-71
2024/04/12 13:40:18;;;;;;;0.20;0.05;;;20.50;78.60;;;;;;5434166;26;20018;-71
2024/04/12 13:42:47;;;;;;;1.70;0.13;;;20.60;79.80;;;;;;5388932;26;20005;-69
2024/04/12 13:50:56;;;;;;;1.42;0.20;;;20.50;78.70;;;;;;5441505;26;20042;-71
2024/04/12 13:53:37;;;;;;;0.80;0.10;;;20.40;78.90;;;;;;5411502;26;20004;-72
2024/04/12 13:58:53;;;;;;;2.58;0.28;;;20.50;79.40;;;;;;5412442;26;20410;-69
2024/04/12 14:01:22;;;;;;;1.60;0.10;;;20.50;79.40;;;;;;5436350;26;19994;-72
2024/04/12 14:03:53;;;;;;;1.27;0.17;;;20.50;78.40;;;;;;5438670;26;20075;-73
2024/04/12 14:06:24;;;;;;;0.93;0.20;;;20.50;78.40;;;;;;5437258;26;20066;-72
2024/04/12 14:08:55;;;;;;;0.63;0.10;;;20.60;79.20;;;;;;5435983;26;20014;-72
2024/04/12 14:11:21;;;;;;;1.38;0.20;;;20.70;78.60;;;;;;5400799;26;20007;-70
2024/04/12 14:13:47;;;;;;;0.38;0.13;;;20.40;78.90;;;;;;5427620;26;20001;-71
2024/04/12 14:16:16;;;;;;;0.95;0.20;;;20.40;78.80;;;;;;5434706;26;20006;-70
2024/04/12 14:18:43;;;;;;;0.60;0.13;;;20.40;79.10;;;;;;5442955;26;20544;-71
2024/04/12 14:21:08;;;;;;;4.53;0.30;;;20.30;78.80;;;;;;5428918;26;20014;-71
2024/04/12 14:23:34;;;;;;;2.13;0.22;;;20.40;78.40;;;;;;5436560;26;20439;-72
2024/04/12 14:26:00;;;;;;;1.27;0.10;;;20.50;78.50;;;;;;5435706;26;20318;-73
2024/04/12 14:28:26;;;;;;;0.20;0.05;;;20.50;78.50;;;;;;5425160;26;20027;-70